createdAt,value
2018-08-16T00:00:01.198Z,2.67
2018-08-16T00:02:28.929Z,2.77
2018-08-16T00:04:57.253Z,2.93
2018-08-16T00:07:25.098Z,2.50
2018-08-16T00:09:52.950Z,2.70
2018-08-16T00:12:20.669Z,2.57
2018-08-16T00:14:48.373Z,2.67
2018-08-16T00:17:16.026Z,2.80
2018-08-16T00:19:43.698Z,2.40
2018-08-16T00:22:11.401Z,2.83
2018-08-16T00:24:39.045Z,2.57
2018-08-16T00:27:06.772Z,2.50
2018-08-16T00:29:34.644Z,2.87
2018-08-16T00:32:02.294Z,2.93
2018-08-16T00:34:29.943Z,2.60
2018-08-16T00:36:57.663Z,3.00
2018-08-16T00:39:25.366Z,2.67
2018-08-16T00:41:53.025Z,2.70
2018-08-16T00:44:20.847Z,2.77
2018-08-16T00:46:48.571Z,2.43
2018-08-16T00:49:16.238Z,2.47
2018-08-16T00:51:43.978Z,2.47
2018-08-16T00:54:11.694Z,2.13
2018-08-16T00:56:39.343Z,2.50
2018-08-16T00:59:07.106Z,2.20
2018-08-16T01:01:34.786Z,2.83
2018-08-16T01:04:02.574Z,2.27
2018-08-16T01:06:30.286Z,2.40
2018-08-16T01:08:58.007Z,2.23
2018-08-16T01:11:25.717Z,2.03
2018-08-16T01:13:53.417Z,2.37
2018-08-16T01:16:21.085Z,2.27
2018-08-16T01:18:49.074Z,2.13
2018-08-16T01:21:16.910Z,2.00
2018-08-16T01:23:44.673Z,2.10
2018-08-16T01:26:12.366Z,2.10
2018-08-16T01:28:40.134Z,2.10
2018-08-16T01:31:07.995Z,2.60
2018-08-16T01:33:35.721Z,2.60
2018-08-16T01:36:03.447Z,2.40
2018-08-16T01:38:31.112Z,2.17
2018-08-16T01:40:58.802Z,2.40
2018-08-16T01:43:26.647Z,2.27
2018-08-16T01:45:54.297Z,2.53
2018-08-16T01:48:21.978Z,2.03
2018-08-16T01:50:49.733Z,2.43
2018-08-16T01:53:17.404Z,1.80
2018-08-16T01:55:45.107Z,2.60
2018-08-16T01:58:12.842Z,2.20
2018-08-16T02:00:40.531Z,2.40
2018-08-16T02:03:08.275Z,2.43
2018-08-16T02:05:35.998Z,2.70
2018-08-16T02:08:03.875Z,2.43
2018-08-16T02:10:31.610Z,3.27
2018-08-16T02:12:59.332Z,2.20
2018-08-16T02:15:27.021Z,2.70
2018-08-16T02:17:54.777Z,2.27
2018-08-16T02:20:22.471Z,2.70
2018-08-16T02:22:50.181Z,2.60
2018-08-16T02:25:17.881Z,2.53
2018-08-16T02:27:45.615Z,2.37
2018-08-16T02:30:13.303Z,2.50
2018-08-16T02:32:40.992Z,2.47
2018-08-16T02:35:09.021Z,2.37
2018-08-16T02:37:36.710Z,2.30
2018-08-16T02:40:05.554Z,3.13
2018-08-16T02:42:33.249Z,2.30
2018-08-16T02:45:00.963Z,2.63
2018-08-16T02:47:28.707Z,2.90
2018-08-16T02:49:56.418Z,2.60
2018-08-16T02:52:24.092Z,2.53
2018-08-16T02:54:51.773Z,2.87
2018-08-16T02:57:19.461Z,2.27
2018-08-16T02:59:47.121Z,2.40
2018-08-16T03:02:14.838Z,3.53
2018-08-16T03:04:42.560Z,3.03
2018-08-16T03:07:10.284Z,2.97
2018-08-16T03:09:38.018Z,4.80
2018-08-16T03:12:06.198Z,3.60
2018-08-16T03:14:33.874Z,3.53
2018-08-16T03:17:01.603Z,2.80
2018-08-16T03:19:29.297Z,3.13
2018-08-16T03:21:56.970Z,2.90
2018-08-16T03:24:24.636Z,2.70
2018-08-16T03:26:52.330Z,4.43
2018-08-16T03:29:20.000Z,3.60
2018-08-16T03:31:47.698Z,9.97
2018-08-16T03:34:15.374Z,2.43
2018-08-16T03:36:43.052Z,2.50
2018-08-16T03:39:10.755Z,2.17
2018-08-16T03:41:38.530Z,2.60
2018-08-16T03:44:07.035Z,2.30
2018-08-16T03:46:34.734Z,2.40
2018-08-16T03:49:02.458Z,2.50
2018-08-16T03:51:30.122Z,2.33
2018-08-16T03:53:57.818Z,3.10
2018-08-16T03:56:25.546Z,3.70
2018-08-16T03:58:53.245Z,2.80
2018-08-16T04:01:20.891Z,3.27
2018-08-16T04:03:48.659Z,2.60
2018-08-16T04:06:16.424Z,2.90
2018-08-16T04:08:44.107Z,3.33
2018-08-16T04:11:11.793Z,2.30
2018-08-16T04:13:39.459Z,2.57
2018-08-16T04:16:07.174Z,2.40
2018-08-16T04:18:34.940Z,2.40
2018-08-16T04:21:02.680Z,2.60
2018-08-16T04:23:30.474Z,3.13
2018-08-16T04:25:58.217Z,2.50
2018-08-16T04:28:25.886Z,2.67
2018-08-16T04:30:53.549Z,3.00
2018-08-16T04:33:21.373Z,2.47
2018-08-16T04:35:49.024Z,2.37
2018-08-16T04:38:16.828Z,4.00
2018-08-16T04:40:44.494Z,3.47
2018-08-16T04:43:12.191Z,3.00
2018-08-16T04:45:39.845Z,2.87
2018-08-16T04:48:07.702Z,3.10
2018-08-16T04:50:35.411Z,3.90
2018-08-16T04:53:03.226Z,3.53
2018-08-16T04:55:30.918Z,4.60
2018-08-16T04:57:58.648Z,2.90
2018-08-16T05:00:26.315Z,3.33
2018-08-16T05:02:54.012Z,2.80
2018-08-16T05:05:21.673Z,3.17
2018-08-16T05:07:49.393Z,5.80
2018-08-16T05:10:17.125Z,2.70
2018-08-16T05:12:44.797Z,3.30
2018-08-16T05:15:13.049Z,3.47
2018-08-16T05:17:41.085Z,3.97
2018-08-16T05:20:11.042Z,3.60
2018-08-16T05:22:38.745Z,3.93
2018-08-16T05:25:06.597Z,4.10
2018-08-16T05:27:34.393Z,4.10
2018-08-16T05:30:02.055Z,3.67
2018-08-16T05:32:29.740Z,3.20
2018-08-16T05:34:57.442Z,3.33
2018-08-16T05:37:25.566Z,3.33
2018-08-16T05:39:53.281Z,3.97
2018-08-16T05:42:21.002Z,3.60
2018-08-16T05:44:48.664Z,3.10
2018-08-16T05:47:16.389Z,3.10
2018-08-16T05:49:44.097Z,3.13
2018-08-16T05:52:11.796Z,3.43
2018-08-16T05:54:39.542Z,3.47
2018-08-16T05:57:07.298Z,3.27
2018-08-16T05:59:34.997Z,3.03
2018-08-16T06:02:02.726Z,3.70
2018-08-16T06:04:30.413Z,4.57
2018-08-16T06:06:58.097Z,4.40
2018-08-16T06:09:25.884Z,3.97
2018-08-16T06:11:53.582Z,4.73
2018-08-16T06:14:21.277Z,4.50
2018-08-16T06:16:48.994Z,4.73
2018-08-16T06:19:16.687Z,4.67
2018-08-16T06:21:44.369Z,4.70
2018-08-16T06:24:12.092Z,4.80
2018-08-16T06:26:39.777Z,5.80
2018-08-16T06:29:07.547Z,4.50
2018-08-16T06:31:35.270Z,3.97
2018-08-16T06:34:03.046Z,3.93
2018-08-16T06:36:30.758Z,3.80
2018-08-16T06:38:58.596Z,3.33
2018-08-16T06:41:26.229Z,3.27
2018-08-16T06:43:53.978Z,3.33
2018-08-16T06:46:21.716Z,3.77
2018-08-16T06:48:49.418Z,2.87
2018-08-16T06:51:17.154Z,4.50
2018-08-16T06:53:44.862Z,3.93
2018-08-16T06:56:12.611Z,3.50
2018-08-16T06:58:40.431Z,3.10
2018-08-16T07:01:08.391Z,3.60
2018-08-16T07:03:36.072Z,3.50
2018-08-16T07:06:03.813Z,2.57
2018-08-16T07:08:31.554Z,2.60
2018-08-16T07:10:59.261Z,2.47
2018-08-16T07:13:27.125Z,2.40
2018-08-16T07:15:54.843Z,2.63
2018-08-16T07:18:22.534Z,2.30
2018-08-16T07:20:50.263Z,2.23
2018-08-16T07:23:18.025Z,2.37
2018-08-16T07:25:45.753Z,2.90
2018-08-16T07:28:13.470Z,2.87
2018-08-16T07:30:41.332Z,3.03
2018-08-16T07:33:09.040Z,3.40
2018-08-16T07:35:36.689Z,2.20
2018-08-16T07:38:04.534Z,2.10
2018-08-16T07:40:32.333Z,2.03
2018-08-16T07:43:00.101Z,2.03
2018-08-16T07:45:27.874Z,1.60
2018-08-16T07:47:55.565Z,1.80
2018-08-16T07:50:23.298Z,1.90
2018-08-16T07:52:51.065Z,1.87
2018-08-16T07:55:18.814Z,1.80
2018-08-16T07:57:46.534Z,1.57
2018-08-16T08:00:17.062Z,1.47
2018-08-16T08:02:44.853Z,3.10
2018-08-16T08:05:12.768Z,4.60
2018-08-16T08:07:40.646Z,4.30
2018-08-16T08:10:08.839Z,3.77
2018-08-16T08:12:36.686Z,5.07
2018-08-16T08:15:06.617Z,6.03
2018-08-16T08:17:34.314Z,5.20
2018-08-16T08:20:02.039Z,5.17
2018-08-16T08:22:29.746Z,3.30
2018-08-16T08:24:57.413Z,3.73
2018-08-16T08:27:25.076Z,5.07
2018-08-16T08:29:52.805Z,6.30
2018-08-16T08:32:20.467Z,5.10
2018-08-16T08:34:48.233Z,3.03
2018-08-16T08:37:27.281Z,2.90
2018-08-16T08:39:54.947Z,2.47
2018-08-16T08:42:22.668Z,2.40
2018-08-16T08:44:50.358Z,2.97
2018-08-16T08:47:18.018Z,3.67
2018-08-16T08:49:45.744Z,4.00
2018-08-16T08:52:13.455Z,5.40
2018-08-16T08:54:55.297Z,5.07
2018-08-16T08:57:35.152Z,5.10
2018-08-16T09:00:02.974Z,2.63
2018-08-16T09:02:30.737Z,4.77
2018-08-16T09:04:58.604Z,1.97
2018-08-16T09:07:26.334Z,1.90
2018-08-16T09:11:11.281Z,1.33
2018-08-16T09:13:50.790Z,1.40
2018-08-16T09:16:20.935Z,2.07
2018-08-16T09:18:48.645Z,2.77
2018-08-16T09:21:16.546Z,2.63
2018-08-16T09:23:44.350Z,2.73
2018-08-16T09:26:17.623Z,3.40
2018-08-16T09:28:45.306Z,1.80
2018-08-16T09:31:24.599Z,1.40
2018-08-16T09:34:03.539Z,1.30
2018-08-16T09:36:31.245Z,1.43
2018-08-16T09:38:59.271Z,1.20
2018-08-16T09:41:27.686Z,1.27
2018-08-16T09:43:55.402Z,0.97
2018-08-16T09:46:46.227Z,0.83
2018-08-16T09:49:14.370Z,1.10
2018-08-16T09:51:43.536Z,1.30
2018-08-16T09:54:11.638Z,1.10
2018-08-16T09:56:39.406Z,1.10
2018-08-16T09:59:07.994Z,1.00
2018-08-16T10:01:36.038Z,1.40
2018-08-16T10:04:04.744Z,0.90
2018-08-16T10:06:32.436Z,0.90
2018-08-16T10:09:00.126Z,1.30
2018-08-16T10:11:27.796Z,1.20
2018-08-16T10:13:56.790Z,1.20
2018-08-16T10:16:24.490Z,1.30
2018-08-16T10:18:52.166Z,0.90
2018-08-16T10:21:20.256Z,0.83
2018-08-16T10:23:48.198Z,1.23
2018-08-16T10:26:15.937Z,1.13
2018-08-16T10:28:44.343Z,1.40
2018-08-16T10:31:12.190Z,0.87
2018-08-16T10:33:40.193Z,0.80
2018-08-16T10:36:08.350Z,1.43
2018-08-16T10:38:36.373Z,1.00
2018-08-16T10:41:04.850Z,1.37
2018-08-16T10:43:32.545Z,0.90
2018-08-16T10:46:00.511Z,1.30
2018-08-16T10:48:28.237Z,1.03
2018-08-16T10:50:55.979Z,0.97
2018-08-16T10:53:23.764Z,1.20
2018-08-16T10:55:51.536Z,1.10
2018-08-16T10:58:19.201Z,1.40
2018-08-16T11:00:46.898Z,1.00
2018-08-16T11:03:14.689Z,1.30
2018-08-16T11:05:43.687Z,0.93
2018-08-16T11:08:11.410Z,1.33
2018-08-16T11:10:39.156Z,1.10
2018-08-16T11:13:06.888Z,1.40
2018-08-16T11:15:34.577Z,1.20
2018-08-16T11:18:02.326Z,1.43
2018-08-16T11:20:30.033Z,1.30
2018-08-16T11:22:57.769Z,1.50
2018-08-16T11:25:25.451Z,1.23
2018-08-16T11:27:53.133Z,1.43
2018-08-16T11:30:20.842Z,1.37
2018-08-16T11:32:48.540Z,1.57
2018-08-16T11:35:16.220Z,1.50
2018-08-16T11:37:43.971Z,1.40
2018-08-16T11:40:11.683Z,1.57
2018-08-16T11:42:39.560Z,1.30
2018-08-16T11:45:07.716Z,1.57
2018-08-16T11:47:35.410Z,1.60
2018-08-16T11:50:03.634Z,1.43
2018-08-16T11:52:31.400Z,1.50
2018-08-16T11:54:59.130Z,1.97
2018-08-16T11:57:26.828Z,2.17
2018-08-16T11:59:54.554Z,1.63
2018-08-16T12:02:22.246Z,1.80
2018-08-16T12:04:49.952Z,1.77
2018-08-16T12:07:17.964Z,1.43
2018-08-16T12:09:45.656Z,1.77
2018-08-16T12:12:13.399Z,2.00
2018-08-16T12:14:41.330Z,1.53
2018-08-16T12:17:08.952Z,1.63
2018-08-16T12:19:36.605Z,1.67
2018-08-16T12:22:04.405Z,1.47
2018-08-16T12:24:32.101Z,2.00
2018-08-16T12:26:59.777Z,1.67
2018-08-16T12:29:27.488Z,1.70
2018-08-16T12:31:55.149Z,1.87
2018-08-16T12:34:22.872Z,2.33
2018-08-16T12:36:50.600Z,1.57
2018-08-16T12:39:18.253Z,2.10
2018-08-16T12:41:45.959Z,1.70
2018-08-16T12:44:13.679Z,2.00
2018-08-16T12:46:41.362Z,1.80
2018-08-16T12:49:09.069Z,2.23
2018-08-16T12:51:37.039Z,2.10
2018-08-16T12:54:05.127Z,2.40
2018-08-16T12:56:32.904Z,2.10
2018-08-16T12:59:00.668Z,2.37
2018-08-16T13:01:28.369Z,4.03
2018-08-16T13:03:56.134Z,2.80
2018-08-16T13:06:23.943Z,5.63
2018-08-16T13:08:51.661Z,5.57
2018-08-16T13:11:19.494Z,3.40
2018-08-16T13:13:47.282Z,2.20
2018-08-16T13:16:15.109Z,2.20
2018-08-16T13:18:42.901Z,2.23
2018-08-16T13:21:10.689Z,2.23
2018-08-16T13:23:38.730Z,2.10
2018-08-16T13:26:06.564Z,1.43
2018-08-16T13:28:34.358Z,1.60
2018-08-16T13:31:02.234Z,1.40
2018-08-16T13:33:29.998Z,1.50
2018-08-16T13:35:57.826Z,1.87
2018-08-16T13:38:25.629Z,1.77
2018-08-16T13:40:53.427Z,1.40
2018-08-16T13:43:21.179Z,1.60
2018-08-16T13:45:48.939Z,1.57
2018-08-16T13:48:16.676Z,1.60
2018-08-16T13:50:44.427Z,1.23
2018-08-16T13:53:12.125Z,1.60
2018-08-16T13:58:16.073Z,1.80
2018-08-16T14:00:43.761Z,1.63
2018-08-16T14:03:11.531Z,2.33
2018-08-16T14:05:39.349Z,1.37
2018-08-16T14:08:07.113Z,1.80
2018-08-16T14:10:34.866Z,1.43
2018-08-16T14:13:02.664Z,2.90
2018-08-16T14:15:30.413Z,2.67
2018-08-16T14:17:58.114Z,2.60
2018-08-16T14:20:25.830Z,3.37
2018-08-16T14:22:53.516Z,5.67
2018-08-16T14:25:21.188Z,3.43
2018-08-16T14:27:48.931Z,5.73
2018-08-16T14:30:16.631Z,3.53
2018-08-16T14:32:44.451Z,6.07
2018-08-16T14:35:12.181Z,7.00
2018-08-16T14:37:39.905Z,7.57
2018-08-16T14:40:07.672Z,5.20
2018-08-16T14:42:35.386Z,7.40
2018-08-16T14:45:03.346Z,6.63
2018-08-16T14:47:31.041Z,7.90
2018-08-16T14:49:58.814Z,5.97
2018-08-16T14:52:26.505Z,5.10
2018-08-16T14:54:54.206Z,3.90
2018-08-16T14:57:21.925Z,6.03
2018-08-16T14:59:49.611Z,6.33
2018-08-16T15:02:17.297Z,8.67
2018-08-16T15:04:45.044Z,11.00
2018-08-16T15:07:12.765Z,10.43
2018-08-16T15:09:40.454Z,9.07
2018-08-16T15:12:08.490Z,9.83
2018-08-16T15:14:36.210Z,10.47
2018-08-16T15:17:04.073Z,9.17
2018-08-16T15:19:31.803Z,7.87
2018-08-16T15:21:59.550Z,6.60
2018-08-16T15:24:27.242Z,6.63
2018-08-16T15:26:54.990Z,7.10
2018-08-16T15:29:22.685Z,6.70
2018-08-16T15:31:50.424Z,8.13
2018-08-16T15:34:18.190Z,8.00
2018-08-16T15:36:45.905Z,8.10
2018-08-16T15:39:13.620Z,7.17
2018-08-16T15:41:41.370Z,8.20
2018-08-16T15:44:09.993Z,6.97
2018-08-16T15:46:37.784Z,6.77
2018-08-16T15:49:05.826Z,7.27
2018-08-16T15:51:33.528Z,6.93
2018-08-16T15:54:01.571Z,4.40
2018-08-16T15:56:29.320Z,3.47
2018-08-16T15:58:57.114Z,3.20
2018-08-16T16:01:24.890Z,2.13
2018-08-16T16:03:52.946Z,2.13
2018-08-16T16:06:20.710Z,1.83
2018-08-16T16:08:48.444Z,2.03
2018-08-16T16:11:16.874Z,1.97
2018-08-16T16:13:44.630Z,1.63
2018-08-16T16:16:12.358Z,2.13
2018-08-16T16:18:40.158Z,1.70
2018-08-16T16:21:07.894Z,1.73
2018-08-16T16:23:35.653Z,2.00
2018-08-16T16:26:03.436Z,2.10
2018-08-16T16:28:31.759Z,2.53
2018-08-16T16:30:59.462Z,2.17
2018-08-16T16:33:27.207Z,1.90
2018-08-16T16:35:54.948Z,1.93
2018-08-16T16:38:22.723Z,2.27
2018-08-16T16:40:50.507Z,2.40
2018-08-16T16:43:18.280Z,2.33
2018-08-16T16:45:46.013Z,2.97
2018-08-16T16:48:13.781Z,2.13
2018-08-16T16:50:41.550Z,2.70
2018-08-16T16:53:09.349Z,2.00
2018-08-16T16:55:37.789Z,2.57
2018-08-16T16:58:06.058Z,2.43
2018-08-16T17:00:33.790Z,2.23
2018-08-16T17:03:01.619Z,2.43
2018-08-16T17:05:29.358Z,2.60
2018-08-16T17:07:57.060Z,2.60
2018-08-16T17:10:24.935Z,2.47
2018-08-16T17:12:52.670Z,2.83
2018-08-16T17:15:20.474Z,2.50
2018-08-16T17:17:48.233Z,3.50
2018-08-16T17:20:15.909Z,3.30
2018-08-16T17:22:43.606Z,2.13
2018-08-16T17:25:11.314Z,2.83
2018-08-16T17:27:38.995Z,3.20
2018-08-16T17:30:07.054Z,1.97
2018-08-16T17:32:34.753Z,2.43
2018-08-16T17:35:02.434Z,2.50
2018-08-16T17:37:30.124Z,3.37
2018-08-16T17:39:57.908Z,3.10
2018-08-16T17:42:25.630Z,4.10
2018-08-16T17:44:53.312Z,3.67
2018-08-16T17:47:21.025Z,4.73
2018-08-16T17:49:48.705Z,4.27
2018-08-16T17:52:16.392Z,4.53
2018-08-16T17:54:44.252Z,5.00
2018-08-16T17:57:11.970Z,5.50
2018-08-16T17:59:39.697Z,5.00
2018-08-16T18:02:07.464Z,3.63
2018-08-16T18:04:35.190Z,3.43
2018-08-16T18:07:02.949Z,3.47
2018-08-16T18:09:30.702Z,2.87
2018-08-16T18:11:58.408Z,3.20
2018-08-16T18:14:26.125Z,3.37
2018-08-16T18:16:53.827Z,4.30
2018-08-16T18:19:21.497Z,4.20
2018-08-16T18:21:49.215Z,5.40
2018-08-16T18:24:16.973Z,5.23
2018-08-16T18:26:44.679Z,4.17
2018-08-16T18:29:12.440Z,4.23
2018-08-16T18:31:40.171Z,4.00
2018-08-16T18:34:07.988Z,3.70
2018-08-16T18:36:35.838Z,4.17
2018-08-16T18:39:05.089Z,3.77
2018-08-16T18:41:32.837Z,3.80
2018-08-16T18:44:00.571Z,4.03
2018-08-16T18:46:28.270Z,4.03
2018-08-16T18:48:56.927Z,3.60
2018-08-16T18:51:25.154Z,4.27
2018-08-16T18:53:52.928Z,4.10
2018-08-16T18:56:20.792Z,3.90
2018-08-16T18:58:48.584Z,3.27
2018-08-16T19:01:16.419Z,3.73
2018-08-16T19:03:44.258Z,3.33
2018-08-16T19:06:12.163Z,3.27
2018-08-16T19:08:40.001Z,3.63
2018-08-16T19:11:07.891Z,3.40
2018-08-16T19:13:35.927Z,3.90
2018-08-16T19:16:03.995Z,4.33
2018-08-16T19:18:31.737Z,4.07
2018-08-16T19:20:59.418Z,4.63
2018-08-16T19:23:27.146Z,5.33
2018-08-16T19:25:54.914Z,4.63
2018-08-16T19:28:22.618Z,5.30
2018-08-16T19:30:50.350Z,4.87
2018-08-16T19:33:18.078Z,5.97
2018-08-16T19:35:45.948Z,5.40
2018-08-16T19:38:13.687Z,4.70
2018-08-16T19:40:41.951Z,5.00
2018-08-16T19:43:09.712Z,5.13
2018-08-16T19:45:37.598Z,5.23
2018-08-16T19:48:05.897Z,5.70
2018-08-16T19:50:33.518Z,5.93
2018-08-16T19:53:01.213Z,5.73
2018-08-16T19:55:28.878Z,5.60
2018-08-16T19:57:56.580Z,6.37
2018-08-16T20:00:24.277Z,5.23
2018-08-16T20:02:52.028Z,5.50
2018-08-16T20:05:19.745Z,5.00
2018-08-16T20:07:47.431Z,4.67
2018-08-16T20:10:15.107Z,4.43
2018-08-16T20:12:42.794Z,4.87
2018-08-16T20:15:10.609Z,4.53
2018-08-16T20:17:38.442Z,5.10
2018-08-16T20:20:06.810Z,4.87
2018-08-16T20:22:34.489Z,5.17
2018-08-16T20:25:02.262Z,5.00
2018-08-16T20:27:30.457Z,5.50
2018-08-16T20:29:58.250Z,5.27
2018-08-16T20:32:25.953Z,5.13
2018-08-16T20:34:53.634Z,4.33
2018-08-16T20:37:21.337Z,4.27
2018-08-16T20:39:49.003Z,4.77
2018-08-16T20:42:16.695Z,3.83
2018-08-16T20:44:44.396Z,4.30
2018-08-16T20:47:12.088Z,3.50
2018-08-16T20:49:39.751Z,3.93
2018-08-16T20:52:07.460Z,3.70
2018-08-16T20:54:35.116Z,3.10
2018-08-16T20:57:02.861Z,3.23
2018-08-16T20:59:30.533Z,3.60
2018-08-16T21:01:58.236Z,4.50
2018-08-16T21:04:25.922Z,3.73
2018-08-16T21:06:53.590Z,4.40
2018-08-16T21:09:21.265Z,3.80
2018-08-16T21:11:48.969Z,6.43
2018-08-16T21:14:16.657Z,6.90
2018-08-16T21:16:44.321Z,8.40
2018-08-16T21:19:11.972Z,9.97
2018-08-16T21:21:39.727Z,9.73
2018-08-16T21:24:07.385Z,8.27
2018-08-16T21:26:35.079Z,4.90
2018-08-16T21:29:02.826Z,3.93
2018-08-16T21:31:30.472Z,4.13
2018-08-16T21:33:58.152Z,3.83
2018-08-16T21:36:25.822Z,3.80
2018-08-16T21:38:53.488Z,3.77
2018-08-16T21:41:21.156Z,3.83
2018-08-16T21:43:48.850Z,3.87
2018-08-16T21:46:16.526Z,3.80
2018-08-16T21:48:44.182Z,3.57
2018-08-16T21:51:11.857Z,3.63
2018-08-16T21:53:39.512Z,3.70
2018-08-16T21:56:07.228Z,3.77
2018-08-16T21:58:37.039Z,3.77
2018-08-16T22:01:05.680Z,3.60
2018-08-16T22:03:33.362Z,4.40
2018-08-16T22:06:03.068Z,4.60
2018-08-16T22:08:39.657Z,4.57
2018-08-16T22:11:07.538Z,4.53
2018-08-16T22:13:35.446Z,4.23
2018-08-16T22:16:03.205Z,5.37
2018-08-16T22:18:30.944Z,4.93
2018-08-16T22:20:58.646Z,5.27
2018-08-16T22:23:26.289Z,5.00
2018-08-16T22:25:54.011Z,5.07
2018-08-16T22:28:21.688Z,4.87
2018-08-16T22:30:49.342Z,5.07
2018-08-16T22:33:17.077Z,5.07
2018-08-16T22:35:44.728Z,5.27
2018-08-16T22:38:12.417Z,5.07
2018-08-16T22:40:40.077Z,5.37
2018-08-16T22:43:07.757Z,5.50
2018-08-16T22:45:35.433Z,5.50
2018-08-16T22:48:03.188Z,5.80
2018-08-16T22:50:30.850Z,5.10
2018-08-16T22:52:58.536Z,5.73
2018-08-16T22:55:26.181Z,6.60
2018-08-16T22:57:53.846Z,7.53
2018-08-16T23:00:21.508Z,8.40
2018-08-16T23:02:49.193Z,7.70
2018-08-16T23:05:16.944Z,8.37
2018-08-16T23:07:44.785Z,6.90
2018-08-16T23:10:12.502Z,7.10
2018-08-16T23:12:40.165Z,7.97
2018-08-16T23:15:08.298Z,6.83
2018-08-16T23:17:35.973Z,6.63
2018-08-16T23:20:04.518Z,5.53
2018-08-16T23:22:32.158Z,4.73
2018-08-16T23:24:59.840Z,4.53
2018-08-16T23:27:27.574Z,4.70
2018-08-16T23:29:55.284Z,4.80
2018-08-16T23:32:22.962Z,4.57
2018-08-16T23:34:50.617Z,4.40
2018-08-16T23:37:18.303Z,4.47
2018-08-16T23:39:46.072Z,4.57
2018-08-16T23:42:13.756Z,4.37
2018-08-16T23:44:41.420Z,5.03
2018-08-16T23:47:09.129Z,4.30
2018-08-16T23:49:36.793Z,4.63
2018-08-16T23:52:04.483Z,4.70
2018-08-16T23:54:32.167Z,4.80
2018-08-16T23:56:59.856Z,4.90
2018-08-16T23:59:27.560Z,4.60
